This is the latest recevied weather packets stored in our database for station/object KC8JWT. If no packets are shown the sender has not sent any weather packets the latest 10 day(s).
| Time | Temp. | Humidity | Pressure | Rain* | Wind** | Luminosity | Snow |
|---|---|---|---|---|---|---|---|
| 1778103603 | 16.11° C | 73% | 1011.3 hPa | 0 mm | - | 161 W/m² | - |
| 1778102998 | 16.67° C | 74% | 1011.5 hPa | 0 mm | - | 142 W/m² | - |
| 1778102694 | 16.67° C | 74% | 1011.7 hPa | 0 mm | - | 142 W/m² | - |
| 1778102389 | 16.67° C | 74% | 1011.4 hPa | 0 mm | - | 142 W/m² | - |
| 1778102085 | 16.67° C | 74% | 1011.3 hPa | 0 mm | - | 127 W/m² | - |
| 1778101782 | 16.67° C | 75% | 1011.5 hPa | 0 mm | - | 150 W/m² | - |
| 1778101478 | 16.11° C | 76% | 1011.5 hPa | 0 mm | - | 176 W/m² | - |
| 1778101176 | 16.11° C | 76% | 1011.4 hPa | 0 mm | - | 176 W/m² | - |
| 1778100872 | 16.67° C | 73% | 1011.4 hPa | 0 mm | - | 120 W/m² | - |
| 1778100568 | 16.67° C | 73% | 1011.2 hPa | 0 mm | - | 112 W/m² | - |
| 1778100266 | 16.67° C | 73% | 1011.5 hPa | 0 mm | - | 135 W/m² | - |
| 1778099964 | 17.22° C | 75% | 1011.3 hPa | 0 mm | - | 221 W/m² | - |
| 1778099660 | 17.22° C | 75% | 1011.3 hPa | 0 mm | - | 221 W/m² | - |
| 1778099358 | 17.22° C | 74% | 1011.4 hPa | 0 mm | - | 241 W/m² | - |
| 1778099055 | 17.22° C | 75% | 1011 hPa | 0 mm | - | 281 W/m² | - |
| 1778098751 | 16.67° C | 79% | 1011 hPa | 0 mm | - | 299 W/m² | - |
| 1778098449 | 16.67° C | 75% | 1011 hPa | 0 mm | - | 285 W/m² | - |
| 1778098145 | 16.67° C | 76% | 1010.8 hPa | 0 mm | - | 263 W/m² | - |
| 1778097841 | 17.22° C | 74% | 1011 hPa | 0 mm | - | 275 W/m² | - |
| 1778097538 | 16.67° C | 76% | 1011.2 hPa | 0 mm | - | 295 W/m² | - |
| 1778097235 | 16.67° C | 76% | 1011.1 hPa | 0 mm | - | 232 W/m² | - |
| 1778096931 | 16.67° C | 75% | 1011.1 hPa | 0 mm | - | 200 W/m² | - |
| 1778096628 | 16.67° C | 77% | 1010.9 hPa | 0 mm | - | 232 W/m² | - |
| 1778096326 | 17.78° C | 72% | 1010.9 hPa | 0 mm | - | 262 W/m² | - |
| 1778096022 | 17.78° C | 76% | 1010.9 hPa | 0 mm | - | 553 W/m² | - |
* Rain latest hour (hover to see other rain measurements)
** Current wind speed in m/s (hover to see current wind gust speed)